sensor_id;sensor_type;location;lat;lon;timestamp;temperature;humidity
5344;DHT22;2694;48.950;8.970;2022-11-25T00:01:08;1.40;99.90
5344;DHT22;2694;48.950;8.970;2022-11-25T00:03:39;1.40;99.90
5344;DHT22;2694;48.950;8.970;2022-11-25T00:06:13;1.30;99.90
5344;DHT22;2694;48.950;8.970;2022-11-25T00:08:44;1.30;99.90
5344;DHT22;2694;48.950;8.970;2022-11-25T00:11:14;1.30;99.90
5344;DHT22;2694;48.950;8.970;2022-11-25T00:13:43;1.20;99.90
5344;DHT22;2694;48.950;8.970;2022-11-25T00:16:13;1.30;99.90
5344;DHT22;2694;48.950;8.970;2022-11-25T00:18:45;1.20;99.90
5344;DHT22;2694;48.950;8.970;2022-11-25T00:21:15;1.30;99.90
5344;DHT22;2694;48.950;8.970;2022-11-25T00:23:43;1.20;99.90
5344;DHT22;2694;48.950;8.970;2022-11-25T00:26:12;1.30;99.90
5344;DHT22;2694;48.950;8.970;2022-11-25T00:28:43;1.20;99.90
5344;DHT22;2694;48.950;8.970;2022-11-25T00:31:14;1.20;99.90
5344;DHT22;2694;48.950;8.970;2022-11-25T00:33:44;1.10;99.90
5344;DHT22;2694;48.950;8.970;2022-11-25T00:36:15;1.20;99.90
5344;DHT22;2694;48.950;8.970;2022-11-25T00:38:43;1.10;99.90
5344;DHT22;2694;48.950;8.970;2022-11-25T00:41:11;1.00;99.90
5344;DHT22;2694;48.950;8.970;2022-11-25T00:43:55;1.00;99.90
5344;DHT22;2694;48.950;8.970;2022-11-25T00:46:40;1.10;99.90
5344;DHT22;2694;48.950;8.970;2022-11-25T00:49:12;1.10;99.90
5344;DHT22;2694;48.950;8.970;2022-11-25T00:51:40;1.20;99.90
5344;DHT22;2694;48.950;8.970;2022-11-25T00:54:10;1.20;99.90
5344;DHT22;2694;48.950;8.970;2022-11-25T00:56:37;1.20;99.90
5344;DHT22;2694;48.950;8.970;2022-11-25T00:59:05;1.20;99.90
5344;DHT22;2694;48.950;8.970;2022-11-25T01:01:33;1.10;99.90
5344;DHT22;2694;48.950;8.970;2022-11-25T01:04:01;1.30;99.90
5344;DHT22;2694;48.950;8.970;2022-11-25T01:06:30;1.30;99.90
5344;DHT22;2694;48.950;8.970;2022-11-25T01:08:58;1.30;99.90
5344;DHT22;2694;48.950;8.970;2022-11-25T01:11:25;1.40;99.90
5344;DHT22;2694;48.950;8.970;2022-11-25T01:13:54;1.30;99.90
5344;DHT22;2694;48.950;8.970;2022-11-25T01:16:23;1.20;99.90
5344;DHT22;2694;48.950;8.970;2022-11-25T01:18:52;1.30;99.90
5344;DHT22;2694;48.950;8.970;2022-11-25T01:21:21;1.40;99.90
5344;DHT22;2694;48.950;8.970;2022-11-25T01:23:51;1.60;99.90
5344;DHT22;2694;48.950;8.970;2022-11-25T01:26:23;1.60;99.90
5344;DHT22;2694;48.950;8.970;2022-11-25T01:28:54;1.70;99.90
5344;DHT22;2694;48.950;8.970;2022-11-25T01:31:22;1.80;99.90
5344;DHT22;2694;48.950;8.970;2022-11-25T01:33:53;1.90;99.90
5344;DHT22;2694;48.950;8.970;2022-11-25T01:36:21;1.90;99.90
5344;DHT22;2694;48.950;8.970;2022-11-25T01:38:54;1.90;99.90
5344;DHT22;2694;48.950;8.970;2022-11-25T01:41:23;1.90;99.90
5344;DHT22;2694;48.950;8.970;2022-11-25T01:44:09;1.90;99.90
5344;DHT22;2694;48.950;8.970;2022-11-25T01:46:50;1.90;99.90
5344;DHT22;2694;48.950;8.970;2022-11-25T01:49:22;1.90;99.90
5344;DHT22;2694;48.950;8.970;2022-11-25T01:51:57;1.90;99.90
5344;DHT22;2694;48.950;8.970;2022-11-25T01:54:30;1.90;99.90
5344;DHT22;2694;48.950;8.970;2022-11-25T01:57:00;1.90;99.90
5344;DHT22;2694;48.950;8.970;2022-11-25T01:59:31;1.90;99.90
5344;DHT22;2694;48.950;8.970;2022-11-25T02:02:01;1.80;99.90
5344;DHT22;2694;48.950;8.970;2022-11-25T02:04:32;1.90;99.90
5344;DHT22;2694;48.950;8.970;2022-11-25T02:07:06;1.90;99.90
5344;DHT22;2694;48.950;8.970;2022-11-25T02:09:41;1.90;99.90
5344;DHT22;2694;48.950;8.970;2022-11-25T02:12:09;1.90;99.90
5344;DHT22;2694;48.950;8.970;2022-11-25T02:14:37;1.90;99.90
5344;DHT22;2694;48.950;8.970;2022-11-25T02:17:05;2.00;99.90
5344;DHT22;2694;48.950;8.970;2022-11-25T02:19:43;2.10;99.90
5344;DHT22;2694;48.950;8.970;2022-11-25T02:22:18;2.20;99.90
5344;DHT22;2694;48.950;8.970;2022-11-25T02:24:53;2.20;99.90
5344;DHT22;2694;48.950;8.970;2022-11-25T02:27:25;2.20;99.90
5344;DHT22;2694;48.950;8.970;2022-11-25T02:29:53;2.30;99.90
5344;DHT22;2694;48.950;8.970;2022-11-25T02:32:24;2.30;99.90
5344;DHT22;2694;48.950;8.970;2022-11-25T02:34:53;2.40;99.90
5344;DHT22;2694;48.950;8.970;2022-11-25T02:37:20;2.40;99.90
5344;DHT22;2694;48.950;8.970;2022-11-25T02:39:50;2.40;99.90
5344;DHT22;2694;48.950;8.970;2022-11-25T02:42:19;2.50;99.90
5344;DHT22;2694;48.950;8.970;2022-11-25T02:44:50;2.50;99.90
5344;DHT22;2694;48.950;8.970;2022-11-25T02:47:20;2.60;99.90
5344;DHT22;2694;48.950;8.970;2022-11-25T02:49:47;2.70;99.90
5344;DHT22;2694;48.950;8.970;2022-11-25T02:52:16;2.70;99.90
5344;DHT22;2694;48.950;8.970;2022-11-25T02:54:44;2.60;99.90
5344;DHT22;2694;48.950;8.970;2022-11-25T02:57:14;2.50;99.90
5344;DHT22;2694;48.950;8.970;2022-11-25T02:59:41;2.50;99.90
5344;DHT22;2694;48.950;8.970;2022-11-25T03:02:13;2.60;99.90
5344;DHT22;2694;48.950;8.970;2022-11-25T03:04:42;2.60;99.90
5344;DHT22;2694;48.950;8.970;2022-11-25T03:07:09;2.40;99.90
5344;DHT22;2694;48.950;8.970;2022-11-25T03:09:38;2.60;99.90
5344;DHT22;2694;48.950;8.970;2022-11-25T03:12:05;2.50;99.90
5344;DHT22;2694;48.950;8.970;2022-11-25T03:14:45;2.50;99.90
5344;DHT22;2694;48.950;8.970;2022-11-25T03:17:14;2.50;99.90
5344;DHT22;2694;48.950;8.970;2022-11-25T03:19:42;2.50;99.90
5344;DHT22;2694;48.950;8.970;2022-11-25T03:22:10;2.40;99.90
5344;DHT22;2694;48.950;8.970;2022-11-25T03:24:37;2.40;99.90
5344;DHT22;2694;48.950;8.970;2022-11-25T03:27:05;2.40;99.90
5344;DHT22;2694;48.950;8.970;2022-11-25T03:29:32;2.40;99.90
5344;DHT22;2694;48.950;8.970;2022-11-25T03:32:02;2.40;99.90
5344;DHT22;2694;48.950;8.970;2022-11-25T03:34:31;2.40;99.90
5344;DHT22;2694;48.950;8.970;2022-11-25T03:36:59;2.40;99.90
5344;DHT22;2694;48.950;8.970;2022-11-25T03:39:26;2.50;99.90
5344;DHT22;2694;48.950;8.970;2022-11-25T03:41:54;2.40;99.90
5344;DHT22;2694;48.950;8.970;2022-11-25T03:44:22;2.40;99.90
5344;DHT22;2694;48.950;8.970;2022-11-25T03:46:49;2.40;99.90
5344;DHT22;2694;48.950;8.970;2022-11-25T03:49:16;2.50;99.90
5344;DHT22;2694;48.950;8.970;2022-11-25T03:51:45;2.50;99.90
5344;DHT22;2694;48.950;8.970;2022-11-25T03:54:12;2.50;99.90
5344;DHT22;2694;48.950;8.970;2022-11-25T03:56:39;2.50;99.90
5344;DHT22;2694;48.950;8.970;2022-11-25T03:59:08;2.50;99.90
5344;DHT22;2694;48.950;8.970;2022-11-25T04:01:35;2.50;99.90
5344;DHT22;2694;48.950;8.970;2022-11-25T04:04:03;2.50;99.90
5344;DHT22;2694;48.950;8.970;2022-11-25T04:06:31;2.60;99.90
5344;DHT22;2694;48.950;8.970;2022-11-25T04:09:00;2.60;99.90
5344;DHT22;2694;48.950;8.970;2022-11-25T04:11:28;2.70;99.90
5344;DHT22;2694;48.950;8.970;2022-11-25T04:14:09;2.70;99.90
5344;DHT22;2694;48.950;8.970;2022-11-25T04:16:36;2.70;99.90
5344;DHT22;2694;48.950;8.970;2022-11-25T04:19:05;2.70;99.90
5344;DHT22;2694;48.950;8.970;2022-11-25T04:21:35;2.30;99.90
5344;DHT22;2694;48.950;8.970;2022-11-25T04:24:04;2.50;99.90
5344;DHT22;2694;48.950;8.970;2022-11-25T04:26:31;2.50;99.90
5344;DHT22;2694;48.950;8.970;2022-11-25T04:28:59;2.50;99.90
5344;DHT22;2694;48.950;8.970;2022-11-25T04:31:27;1.80;99.90
5344;DHT22;2694;48.950;8.970;2022-11-25T04:33:56;2.60;99.90
5344;DHT22;2694;48.950;8.970;2022-11-25T04:36:24;2.50;99.90
5344;DHT22;2694;48.950;8.970;2022-11-25T04:38:51;2.50;99.90
5344;DHT22;2694;48.950;8.970;2022-11-25T04:41:20;2.50;99.90
5344;DHT22;2694;48.950;8.970;2022-11-25T04:43:51;2.50;99.90
5344;DHT22;2694;48.950;8.970;2022-11-25T04:46:21;2.40;99.90
5344;DHT22;2694;48.950;8.970;2022-11-25T04:48:51;2.40;99.90
5344;DHT22;2694;48.950;8.970;2022-11-25T04:51:18;2.40;99.90
5344;DHT22;2694;48.950;8.970;2022-11-25T04:53:46;2.30;99.90
5344;DHT22;2694;48.950;8.970;2022-11-25T04:56:17;2.30;99.90
5344;DHT22;2694;48.950;8.970;2022-11-25T04:58:49;2.40;99.90
5344;DHT22;2694;48.950;8.970;2022-11-25T05:01:31;2.40;99.90
5344;DHT22;2694;48.950;8.970;2022-11-25T05:03:59;2.40;99.90
5344;DHT22;2694;48.950;8.970;2022-11-25T05:06:27;2.40;99.90
5344;DHT22;2694;48.950;8.970;2022-11-25T05:08:54;2.30;99.90
5344;DHT22;2694;48.950;8.970;2022-11-25T05:11:21;2.30;99.90
5344;DHT22;2694;48.950;8.970;2022-11-25T05:13:53;2.30;99.90
5344;DHT22;2694;48.950;8.970;2022-11-25T05:16:22;2.20;99.90
5344;DHT22;2694;48.950;8.970;2022-11-25T05:18:51;2.20;99.90
5344;DHT22;2694;48.950;8.970;2022-11-25T05:21:18;2.20;99.90
5344;DHT22;2694;48.950;8.970;2022-11-25T05:23:45;2.30;99.90
5344;DHT22;2694;48.950;8.970;2022-11-25T05:26:12;2.30;99.90
5344;DHT22;2694;48.950;8.970;2022-11-25T05:28:40;2.30;99.90
5344;DHT22;2694;48.950;8.970;2022-11-25T05:31:14;2.30;99.90
5344;DHT22;2694;48.950;8.970;2022-11-25T05:33:43;2.30;99.90
5344;DHT22;2694;48.950;8.970;2022-11-25T05:36:10;2.40;99.90
5344;DHT22;2694;48.950;8.970;2022-11-25T05:38:41;2.30;99.90
5344;DHT22;2694;48.950;8.970;2022-11-25T05:41:10;2.30;99.90
5344;DHT22;2694;48.950;8.970;2022-11-25T05:43:37;2.30;99.90
5344;DHT22;2694;48.950;8.970;2022-11-25T05:46:05;2.20;99.90
5344;DHT22;2694;48.950;8.970;2022-11-25T05:48:35;2.50;99.90
5344;DHT22;2694;48.950;8.970;2022-11-25T05:51:04;2.50;99.90
5344;DHT22;2694;48.950;8.970;2022-11-25T05:53:34;2.40;99.90
5344;DHT22;2694;48.950;8.970;2022-11-25T05:56:04;2.40;99.90
5344;DHT22;2694;48.950;8.970;2022-11-25T05:58:32;2.40;99.90
5344;DHT22;2694;48.950;8.970;2022-11-25T06:00:59;2.40;99.90
5344;DHT22;2694;48.950;8.970;2022-11-25T06:03:28;2.40;99.90
5344;DHT22;2694;48.950;8.970;2022-11-25T06:05:58;2.30;99.90
5344;DHT22;2694;48.950;8.970;2022-11-25T06:08:27;2.30;99.90
5344;DHT22;2694;48.950;8.970;2022-11-25T06:10:55;2.20;99.90
5344;DHT22;2694;48.950;8.970;2022-11-25T06:13:22;2.20;99.90
5344;DHT22;2694;48.950;8.970;2022-11-25T06:15:50;2.20;99.90
5344;DHT22;2694;48.950;8.970;2022-11-25T06:18:17;2.20;99.90
5344;DHT22;2694;48.950;8.970;2022-11-25T06:20:44;2.20;99.90
5344;DHT22;2694;48.950;8.970;2022-11-25T06:23:22;2.10;99.90
5344;DHT22;2694;48.950;8.970;2022-11-25T06:25:50;2.10;99.90
5344;DHT22;2694;48.950;8.970;2022-11-25T06:28:18;2.00;99.90
5344;DHT22;2694;48.950;8.970;2022-11-25T06:30:48;2.10;99.90
5344;DHT22;2694;48.950;8.970;2022-11-25T06:33:16;2.10;99.90
5344;DHT22;2694;48.950;8.970;2022-11-25T06:35:44;2.10;99.90
5344;DHT22;2694;48.950;8.970;2022-11-25T06:38:11;2.10;99.90
5344;DHT22;2694;48.950;8.970;2022-11-25T06:40:40;2.10;99.90
5344;DHT22;2694;48.950;8.970;2022-11-25T06:43:07;2.00;99.90
5344;DHT22;2694;48.950;8.970;2022-11-25T06:45:34;2.10;99.90
5344;DHT22;2694;48.950;8.970;2022-11-25T06:48:02;2.10;99.90
5344;DHT22;2694;48.950;8.970;2022-11-25T06:50:29;2.10;99.90
5344;DHT22;2694;48.950;8.970;2022-11-25T06:53:00;2.10;99.90
5344;DHT22;2694;48.950;8.970;2022-11-25T06:55:28;2.20;99.90
5344;DHT22;2694;48.950;8.970;2022-11-25T06:57:57;2.30;99.90
5344;DHT22;2694;48.950;8.970;2022-11-25T07:00:24;2.40;99.90
5344;DHT22;2694;48.950;8.970;2022-11-25T07:02:52;2.40;99.90
5344;DHT22;2694;48.950;8.970;2022-11-25T07:05:19;2.40;99.90
5344;DHT22;2694;48.950;8.970;2022-11-25T07:07:46;2.40;99.90
5344;DHT22;2694;48.950;8.970;2022-11-25T07:10:14;2.50;99.90
5344;DHT22;2694;48.950;8.970;2022-11-25T07:12:42;2.60;99.90
5344;DHT22;2694;48.950;8.970;2022-11-25T07:15:12;2.60;99.90
5344;DHT22;2694;48.950;8.970;2022-11-25T07:17:39;2.80;99.90
5344;DHT22;2694;48.950;8.970;2022-11-25T07:20:08;2.90;99.90
5344;DHT22;2694;48.950;8.970;2022-11-25T07:22:36;3.00;99.90
5344;DHT22;2694;48.950;8.970;2022-11-25T07:25:03;3.10;99.90
5344;DHT22;2694;48.950;8.970;2022-11-25T07:27:32;3.20;99.90
5344;DHT22;2694;48.950;8.970;2022-11-25T07:30:03;3.20;99.90
5344;DHT22;2694;48.950;8.970;2022-11-25T07:32:34;3.30;99.90
5344;DHT22;2694;48.950;8.970;2022-11-25T07:35:02;3.40;99.90
5344;DHT22;2694;48.950;8.970;2022-11-25T07:37:30;3.40;99.90
5344;DHT22;2694;48.950;8.970;2022-11-25T07:40:00;3.40;99.90
5344;DHT22;2694;48.950;8.970;2022-11-25T07:42:29;3.60;99.90
5344;DHT22;2694;48.950;8.970;2022-11-25T07:44:59;3.50;99.90
5344;DHT22;2694;48.950;8.970;2022-11-25T07:47:26;3.60;99.90
5344;DHT22;2694;48.950;8.970;2022-11-25T07:49:55;3.50;99.90
5344;DHT22;2694;48.950;8.970;2022-11-25T07:52:22;3.40;99.90
5344;DHT22;2694;48.950;8.970;2022-11-25T07:54:50;3.10;99.90
5344;DHT22;2694;48.950;8.970;2022-11-25T07:57:18;3.10;99.90
5344;DHT22;2694;48.950;8.970;2022-11-25T07:59:46;2.80;99.90
5344;DHT22;2694;48.950;8.970;2022-11-25T08:02:13;2.80;99.90
5344;DHT22;2694;48.950;8.970;2022-11-25T08:04:40;3.00;99.90
5344;DHT22;2694;48.950;8.970;2022-11-25T08:07:11;3.10;99.90
5344;DHT22;2694;48.950;8.970;2022-11-25T08:09:40;3.10;99.90
5344;DHT22;2694;48.950;8.970;2022-11-25T08:12:07;3.20;99.90
5344;DHT22;2694;48.950;8.970;2022-11-25T08:14:37;3.20;99.90
5344;DHT22;2694;48.950;8.970;2022-11-25T08:17:05;3.30;99.90
5344;DHT22;2694;48.950;8.970;2022-11-25T08:19:32;3.40;99.90
5344;DHT22;2694;48.950;8.970;2022-11-25T08:22:01;3.60;99.90
5344;DHT22;2694;48.950;8.970;2022-11-25T08:24:29;3.70;99.90
5344;DHT22;2694;48.950;8.970;2022-11-25T08:26:57;3.80;99.90
5344;DHT22;2694;48.950;8.970;2022-11-25T08:29:26;3.80;99.90
5344;DHT22;2694;48.950;8.970;2022-11-25T08:31:54;4.00;99.90
5344;DHT22;2694;48.950;8.970;2022-11-25T08:34:23;4.00;99.90
5344;DHT22;2694;48.950;8.970;2022-11-25T08:36:51;4.20;99.90
5344;DHT22;2694;48.950;8.970;2022-11-25T08:39:19;4.20;99.90
5344;DHT22;2694;48.950;8.970;2022-11-25T08:41:49;4.20;99.90
5344;DHT22;2694;48.950;8.970;2022-11-25T08:44:16;4.30;99.90
5344;DHT22;2694;48.950;8.970;2022-11-25T08:46:44;4.50;99.90
5344;DHT22;2694;48.950;8.970;2022-11-25T08:49:13;4.50;99.90
5344;DHT22;2694;48.950;8.970;2022-11-25T08:51:44;4.70;99.90
5344;DHT22;2694;48.950;8.970;2022-11-25T08:54:13;5.00;99.90
5344;DHT22;2694;48.950;8.970;2022-11-25T08:56:42;5.20;99.90
5344;DHT22;2694;48.950;8.970;2022-11-25T08:59:14;5.30;99.90
5344;DHT22;2694;48.950;8.970;2022-11-25T09:01:41;5.40;99.90
5344;DHT22;2694;48.950;8.970;2022-11-25T09:04:12;5.70;99.90
5344;DHT22;2694;48.950;8.970;2022-11-25T09:06:39;5.80;99.90
5344;DHT22;2694;48.950;8.970;2022-11-25T09:09:06;5.90;99.90
5344;DHT22;2694;48.950;8.970;2022-11-25T09:11:34;6.00;99.90
5344;DHT22;2694;48.950;8.970;2022-11-25T09:14:01;6.00;99.90
5344;DHT22;2694;48.950;8.970;2022-11-25T09:16:30;5.90;99.90
5344;DHT22;2694;48.950;8.970;2022-11-25T09:18:57;5.90;99.90
5344;DHT22;2694;48.950;8.970;2022-11-25T09:21:30;5.90;99.90
5344;DHT22;2694;48.950;8.970;2022-11-25T09:23:57;6.00;99.90
5344;DHT22;2694;48.950;8.970;2022-11-25T09:26:27;6.10;99.90
5344;DHT22;2694;48.950;8.970;2022-11-25T09:28:56;5.90;99.90
5344;DHT22;2694;48.950;8.970;2022-11-25T09:31:24;5.90;99.90
5344;DHT22;2694;48.950;8.970;2022-11-25T09:33:55;5.80;99.90
5344;DHT22;2694;48.950;8.970;2022-11-25T09:36:23;5.90;99.90
5344;DHT22;2694;48.950;8.970;2022-11-25T09:38:50;6.00;99.90
5344;DHT22;2694;48.950;8.970;2022-11-25T09:41:30;6.10;99.90
5344;DHT22;2694;48.950;8.970;2022-11-25T09:44:29;6.20;99.90
5344;DHT22;2694;48.950;8.970;2022-11-25T09:47:21;6.30;99.90
5344;DHT22;2694;48.950;8.970;2022-11-25T09:50:07;6.20;99.90
5344;DHT22;2694;48.950;8.970;2022-11-25T09:52:47;6.20;99.90
5344;DHT22;2694;48.950;8.970;2022-11-25T09:55:19;6.20;99.90
5344;DHT22;2694;48.950;8.970;2022-11-25T09:58:08;6.20;99.90
5344;DHT22;2694;48.950;8.970;2022-11-25T10:00:40;6.10;99.90
5344;DHT22;2694;48.950;8.970;2022-11-25T10:03:16;6.10;99.90
5344;DHT22;2694;48.950;8.970;2022-11-25T10:05:59;6.20;99.90
5344;DHT22;2694;48.950;8.970;2022-11-25T10:08:31;6.10;99.90
5344;DHT22;2694;48.950;8.970;2022-11-25T10:11:02;6.30;99.90
5344;DHT22;2694;48.950;8.970;2022-11-25T10:13:39;6.30;99.90
5344;DHT22;2694;48.950;8.970;2022-11-25T10:16:29;6.30;99.90
5344;DHT22;2694;48.950;8.970;2022-11-25T10:19:00;6.20;99.90
5344;DHT22;2694;48.950;8.970;2022-11-25T10:21:29;6.10;99.90
5344;DHT22;2694;48.950;8.970;2022-11-25T10:23:56;6.40;99.90
5344;DHT22;2694;48.950;8.970;2022-11-25T10:26:31;6.40;99.90
5344;DHT22;2694;48.950;8.970;2022-11-25T10:29:20;6.30;99.90
5344;DHT22;2694;48.950;8.970;2022-11-25T10:31:54;6.40;99.90
5344;DHT22;2694;48.950;8.970;2022-11-25T10:34:30;6.30;99.90
5344;DHT22;2694;48.950;8.970;2022-11-25T10:37:05;6.20;99.90
5344;DHT22;2694;48.950;8.970;2022-11-25T10:39:34;6.10;99.90
5344;DHT22;2694;48.950;8.970;2022-11-25T10:42:04;6.10;99.90
5344;DHT22;2694;48.950;8.970;2022-11-25T10:44:35;6.10;99.90
5344;DHT22;2694;48.950;8.970;2022-11-25T10:47:19;6.10;99.90
5344;DHT22;2694;48.950;8.970;2022-11-25T10:49:59;6.20;99.90
5344;DHT22;2694;48.950;8.970;2022-11-25T10:52:34;6.20;99.90
5344;DHT22;2694;48.950;8.970;2022-11-25T10:55:12;6.20;99.90
5344;DHT22;2694;48.950;8.970;2022-11-25T10:57:40;6.20;99.90
5344;DHT22;2694;48.950;8.970;2022-11-25T11:00:24;6.30;99.90
5344;DHT22;2694;48.950;8.970;2022-11-25T11:02:54;6.40;99.90
5344;DHT22;2694;48.950;8.970;2022-11-25T11:05:23;6.40;99.90
5344;DHT22;2694;48.950;8.970;2022-11-25T11:08:14;6.50;99.90
5344;DHT22;2694;48.950;8.970;2022-11-25T11:10:44;6.50;99.90
5344;DHT22;2694;48.950;8.970;2022-11-25T11:13:22;6.70;99.90
5344;DHT22;2694;48.950;8.970;2022-11-25T11:15:50;6.70;99.90
5344;DHT22;2694;48.950;8.970;2022-11-25T11:18:24;6.80;99.90
5344;DHT22;2694;48.950;8.970;2022-11-25T11:20:55;6.90;99.90
5344;DHT22;2694;48.950;8.970;2022-11-25T11:23:26;6.90;99.90
5344;DHT22;2694;48.950;8.970;2022-11-25T11:25:57;7.20;99.90
5344;DHT22;2694;48.950;8.970;2022-11-25T11:28:27;7.20;99.90
5344;DHT22;2694;48.950;8.970;2022-11-25T11:31:00;7.30;99.90
5344;DHT22;2694;48.950;8.970;2022-11-25T11:33:32;7.30;99.90
5344;DHT22;2694;48.950;8.970;2022-11-25T11:36:20;7.40;99.90
5344;DHT22;2694;48.950;8.970;2022-11-25T11:38:53;7.40;99.90
5344;DHT22;2694;48.950;8.970;2022-11-25T11:41:30;7.40;99.90
5344;DHT22;2694;48.950;8.970;2022-11-25T11:44:15;7.40;99.90
5344;DHT22;2694;48.950;8.970;2022-11-25T11:46:58;7.30;99.90
5344;DHT22;2694;48.950;8.970;2022-11-25T11:49:52;7.40;99.90
5344;DHT22;2694;48.950;8.970;2022-11-25T11:52:29;7.40;99.90
5344;DHT22;2694;48.950;8.970;2022-11-25T11:55:02;7.40;99.90
5344;DHT22;2694;48.950;8.970;2022-11-25T11:57:44;7.50;99.90
5344;DHT22;2694;48.950;8.970;2022-11-25T12:00:19;7.50;99.90
5344;DHT22;2694;48.950;8.970;2022-11-25T12:02:53;7.50;99.90
5344;DHT22;2694;48.950;8.970;2022-11-25T12:05:26;7.30;99.90
5344;DHT22;2694;48.950;8.970;2022-11-25T12:08:04;7.30;99.90
5344;DHT22;2694;48.950;8.970;2022-11-25T12:10:39;7.30;99.90
5344;DHT22;2694;48.950;8.970;2022-11-25T12:13:14;7.30;99.90
5344;DHT22;2694;48.950;8.970;2022-11-25T12:15:51;7.20;99.90
5344;DHT22;2694;48.950;8.970;2022-11-25T12:18:32;7.20;99.90
5344;DHT22;2694;48.950;8.970;2022-11-25T12:21:03;7.20;99.90
5344;DHT22;2694;48.950;8.970;2022-11-25T12:23:40;7.30;99.90
5344;DHT22;2694;48.950;8.970;2022-11-25T12:26:21;7.30;99.90
5344;DHT22;2694;48.950;8.970;2022-11-25T12:28:55;7.30;99.90
5344;DHT22;2694;48.950;8.970;2022-11-25T12:31:26;7.40;99.90
5344;DHT22;2694;48.950;8.970;2022-11-25T12:34:01;7.30;99.90
5344;DHT22;2694;48.950;8.970;2022-11-25T12:36:33;7.10;99.90
5344;DHT22;2694;48.950;8.970;2022-11-25T12:39:09;7.10;99.90
5344;DHT22;2694;48.950;8.970;2022-11-25T12:41:43;7.00;99.90
5344;DHT22;2694;48.950;8.970;2022-11-25T12:44:17;7.00;99.90
5344;DHT22;2694;48.950;8.970;2022-11-25T12:46:58;7.10;99.90
5344;DHT22;2694;48.950;8.970;2022-11-25T12:49:31;7.00;99.90
5344;DHT22;2694;48.950;8.970;2022-11-25T12:52:33;7.00;99.90
5344;DHT22;2694;48.950;8.970;2022-11-25T12:55:19;7.10;99.90
5344;DHT22;2694;48.950;8.970;2022-11-25T12:58:08;7.20;99.90
5344;DHT22;2694;48.950;8.970;2022-11-25T13:04:16;7.40;99.90
5344;DHT22;2694;48.950;8.970;2022-11-25T13:07:21;7.50;99.90
5344;DHT22;2694;48.950;8.970;2022-11-25T13:13:29;7.60;99.90
5344;DHT22;2694;48.950;8.970;2022-11-25T13:16:00;7.70;99.90
5344;DHT22;2694;48.950;8.970;2022-11-25T13:18:31;7.80;99.90
5344;DHT22;2694;48.950;8.970;2022-11-25T13:21:05;7.90;99.90
5344;DHT22;2694;48.950;8.970;2022-11-25T13:23:49;8.00;99.90
5344;DHT22;2694;48.950;8.970;2022-11-25T13:26:35;8.10;99.90
5344;DHT22;2694;48.950;8.970;2022-11-25T13:32:36;8.30;99.90
5344;DHT22;2694;48.950;8.970;2022-11-25T13:35:45;8.20;99.90
5344;DHT22;2694;48.950;8.970;2022-11-25T13:38:56;8.10;99.90
5344;DHT22;2694;48.950;8.970;2022-11-25T13:41:39;8.10;99.90
5344;DHT22;2694;48.950;8.970;2022-11-25T13:44:21;8.10;99.90
5344;DHT22;2694;48.950;8.970;2022-11-25T13:46:53;8.10;99.90
5344;DHT22;2694;48.950;8.970;2022-11-25T13:49:38;8.10;99.90
5344;DHT22;2694;48.950;8.970;2022-11-25T13:52:30;8.20;99.90
5344;DHT22;2694;48.950;8.970;2022-11-25T13:55:00;8.30;99.90
5344;DHT22;2694;48.950;8.970;2022-11-25T13:57:30;8.30;99.90
5344;DHT22;2694;48.950;8.970;2022-11-25T14:00:05;8.30;99.90
5344;DHT22;2694;48.950;8.970;2022-11-25T14:02:42;8.20;99.90
5344;DHT22;2694;48.950;8.970;2022-11-25T14:05:56;8.20;99.90
5344;DHT22;2694;48.950;8.970;2022-11-25T14:08:33;8.00;99.90
5344;DHT22;2694;48.950;8.970;2022-11-25T14:11:35;8.10;99.90
5344;DHT22;2694;48.950;8.970;2022-11-25T14:14:24;8.20;99.90
5344;DHT22;2694;48.950;8.970;2022-11-25T14:17:04;8.20;99.90
5344;DHT22;2694;48.950;8.970;2022-11-25T14:22:44;8.20;99.90
5344;DHT22;2694;48.950;8.970;2022-11-25T14:25:21;8.20;99.90
5344;DHT22;2694;48.950;8.970;2022-11-25T14:27:51;8.10;99.90
5344;DHT22;2694;48.950;8.970;2022-11-25T14:30:21;8.10;99.90
5344;DHT22;2694;48.950;8.970;2022-11-25T14:32:58;8.10;99.90
5344;DHT22;2694;48.950;8.970;2022-11-25T14:35:29;8.10;99.90
5344;DHT22;2694;48.950;8.970;2022-11-25T14:38:00;8.20;99.90
5344;DHT22;2694;48.950;8.970;2022-11-25T14:40:34;8.20;99.90
5344;DHT22;2694;48.950;8.970;2022-11-25T14:43:04;8.20;99.90
5344;DHT22;2694;48.950;8.970;2022-11-25T14:45:36;8.30;99.90
5344;DHT22;2694;48.950;8.970;2022-11-25T14:48:24;8.40;99.90
5344;DHT22;2694;48.950;8.970;2022-11-25T14:50:55;8.50;99.90
5344;DHT22;2694;48.950;8.970;2022-11-25T14:53:24;8.60;99.90
5344;DHT22;2694;48.950;8.970;2022-11-25T14:55:53;8.50;99.90
5344;DHT22;2694;48.950;8.970;2022-11-25T14:58:22;8.50;99.90
5344;DHT22;2694;48.950;8.970;2022-11-25T15:00:51;8.40;99.90
5344;DHT22;2694;48.950;8.970;2022-11-25T15:03:19;8.40;99.90
5344;DHT22;2694;48.950;8.970;2022-11-25T15:05:54;8.40;99.90
5344;DHT22;2694;48.950;8.970;2022-11-25T15:08:22;8.30;99.90
5344;DHT22;2694;48.950;8.970;2022-11-25T15:10:56;8.30;99.90
5344;DHT22;2694;48.950;8.970;2022-11-25T15:13:30;8.20;99.90
5344;DHT22;2694;48.950;8.970;2022-11-25T15:16:05;8.20;99.90
5344;DHT22;2694;48.950;8.970;2022-11-25T15:18:33;8.10;99.90
5344;DHT22;2694;48.950;8.970;2022-11-25T15:21:13;8.10;99.90
5344;DHT22;2694;48.950;8.970;2022-11-25T15:23:41;8.00;99.90
5344;DHT22;2694;48.950;8.970;2022-11-25T15:26:16;8.00;99.90
5344;DHT22;2694;48.950;8.970;2022-11-25T15:28:44;8.00;99.90
5344;DHT22;2694;48.950;8.970;2022-11-25T15:31:23;7.90;99.90
5344;DHT22;2694;48.950;8.970;2022-11-25T15:33:55;7.90;99.90
5344;DHT22;2694;48.950;8.970;2022-11-25T15:36:25;7.80;99.90
5344;DHT22;2694;48.950;8.970;2022-11-25T15:38:53;7.80;99.90
5344;DHT22;2694;48.950;8.970;2022-11-25T15:41:30;7.80;99.90
5344;DHT22;2694;48.950;8.970;2022-11-25T15:43:59;7.70;99.90
5344;DHT22;2694;48.950;8.970;2022-11-25T15:46:31;7.70;99.90
5344;DHT22;2694;48.950;8.970;2022-11-25T15:49:03;7.60;99.90
5344;DHT22;2694;48.950;8.970;2022-11-25T15:51:37;7.50;99.90
5344;DHT22;2694;48.950;8.970;2022-11-25T15:54:16;7.40;99.90
5344;DHT22;2694;48.950;8.970;2022-11-25T15:56:47;7.30;99.90
5344;DHT22;2694;48.950;8.970;2022-11-25T15:59:49;7.20;99.90
5344;DHT22;2694;48.950;8.970;2022-11-25T16:02:37;7.20;99.90
5344;DHT22;2694;48.950;8.970;2022-11-25T16:05:24;7.20;99.90
5344;DHT22;2694;48.950;8.970;2022-11-25T16:10:59;7.10;99.90
5344;DHT22;2694;48.950;8.970;2022-11-25T16:13:35;7.00;99.90
5344;DHT22;2694;48.950;8.970;2022-11-25T16:16:15;7.10;99.90
5344;DHT22;2694;48.950;8.970;2022-11-25T16:18:51;7.00;99.90
5344;DHT22;2694;48.950;8.970;2022-11-25T16:21:21;7.00;99.90
5344;DHT22;2694;48.950;8.970;2022-11-25T16:23:51;7.00;99.90
5344;DHT22;2694;48.950;8.970;2022-11-25T16:26:26;6.90;99.90
5344;DHT22;2694;48.950;8.970;2022-11-25T16:28:55;6.80;99.90
5344;DHT22;2694;48.950;8.970;2022-11-25T16:31:25;6.70;99.90
5344;DHT22;2694;48.950;8.970;2022-11-25T16:33:54;6.60;99.90
5344;DHT22;2694;48.950;8.970;2022-11-25T16:36:24;6.50;99.90
5344;DHT22;2694;48.950;8.970;2022-11-25T16:38:51;6.40;99.90
5344;DHT22;2694;48.950;8.970;2022-11-25T16:41:23;6.40;99.90
5344;DHT22;2694;48.950;8.970;2022-11-25T16:43:51;6.30;99.90
5344;DHT22;2694;48.950;8.970;2022-11-25T16:46:21;6.20;99.90
5344;DHT22;2694;48.950;8.970;2022-11-25T16:48:48;6.00;99.90
5344;DHT22;2694;48.950;8.970;2022-11-25T16:51:18;5.90;99.90
5344;DHT22;2694;48.950;8.970;2022-11-25T16:53:48;5.90;99.90
5344;DHT22;2694;48.950;8.970;2022-11-25T16:56:26;5.80;99.90
5344;DHT22;2694;48.950;8.970;2022-11-25T16:58:54;5.80;99.90
5344;DHT22;2694;48.950;8.970;2022-11-25T17:01:23;5.80;99.90
5344;DHT22;2694;48.950;8.970;2022-11-25T17:03:51;5.80;99.90
5344;DHT22;2694;48.950;8.970;2022-11-25T17:06:28;5.70;99.90